sensor_id;sensor_type;location;lat;lon;timestamp;P1;durP1;ratioP1;P2;durP2;ratioP2
22929;SDS011;11630;42.660;23.292;2023-06-05T00:01:38;13.63;;;8.93;;
22929;SDS011;11630;42.660;23.292;2023-06-05T00:04:08;9.57;;;8.57;;
22929;SDS011;11630;42.660;23.292;2023-06-05T00:06:40;11.30;;;8.67;;
22929;SDS011;11630;42.660;23.292;2023-06-05T00:09:10;11.73;;;7.57;;
22929;SDS011;11630;42.660;23.292;2023-06-05T00:11:41;9.17;;;7.57;;
22929;SDS011;11630;42.660;23.292;2023-06-05T00:14:12;14.00;;;7.33;;
22929;SDS011;11630;42.660;23.292;2023-06-05T00:16:43;8.70;;;7.83;;
22929;SDS011;11630;42.660;23.292;2023-06-05T00:19:14;10.63;;;8.67;;
22929;SDS011;11630;42.660;23.292;2023-06-05T00:21:44;10.73;;;7.87;;
22929;SDS011;11630;42.660;23.292;2023-06-05T00:24:15;9.67;;;8.33;;
22929;SDS011;11630;42.660;23.292;2023-06-05T00:26:46;14.97;;;8.40;;
22929;SDS011;11630;42.660;23.292;2023-06-05T00:29:21;13.77;;;9.00;;
22929;SDS011;11630;42.660;23.292;2023-06-05T00:31:51;13.73;;;8.20;;
22929;SDS011;11630;42.660;23.292;2023-06-05T00:34:22;16.67;;;9.00;;
22929;SDS011;11630;42.660;23.292;2023-06-05T00:36:53;10.23;;;9.10;;
22929;SDS011;11630;42.660;23.292;2023-06-05T00:39:24;9.73;;;8.40;;
22929;SDS011;11630;42.660;23.292;2023-06-05T00:41:54;12.87;;;8.97;;
22929;SDS011;11630;42.660;23.292;2023-06-05T00:44:28;13.57;;;8.70;;
22929;SDS011;11630;42.660;23.292;2023-06-05T00:46:59;9.97;;;8.67;;
22929;SDS011;11630;42.660;23.292;2023-06-05T00:49:30;9.83;;;8.83;;
22929;SDS011;11630;42.660;23.292;2023-06-05T00:52:01;11.30;;;8.53;;
22929;SDS011;11630;42.660;23.292;2023-06-05T00:54:32;23.80;;;10.20;;
22929;SDS011;11630;42.660;23.292;2023-06-05T00:57:03;11.20;;;9.60;;
22929;SDS011;11630;42.660;23.292;2023-06-05T00:59:37;11.63;;;9.53;;
22929;SDS011;11630;42.660;23.292;2023-06-05T01:02:07;10.80;;;9.67;;
22929;SDS011;11630;42.660;23.292;2023-06-05T01:04:42;10.57;;;9.47;;
22929;SDS011;11630;42.660;23.292;2023-06-05T01:07:12;16.93;;;9.70;;
22929;SDS011;11630;42.660;23.292;2023-06-05T01:09:44;13.10;;;10.27;;
22929;SDS011;11630;42.660;23.292;2023-06-05T01:12:20;14.60;;;9.70;;
22929;SDS011;11630;42.660;23.292;2023-06-05T01:14:50;12.23;;;9.57;;
22929;SDS011;11630;42.660;23.292;2023-06-05T01:17:21;12.50;;;9.40;;
22929;SDS011;11630;42.660;23.292;2023-06-05T01:19:52;10.33;;;9.23;;
22929;SDS011;11630;42.660;23.292;2023-06-05T01:22:25;14.97;;;9.27;;
22929;SDS011;11630;42.660;23.292;2023-06-05T01:24:56;10.73;;;9.53;;
22929;SDS011;11630;42.660;23.292;2023-06-05T01:27:29;12.13;;;10.27;;
22929;SDS011;11630;42.660;23.292;2023-06-05T01:30:09;16.43;;;10.27;;
22929;SDS011;11630;42.660;23.292;2023-06-05T01:32:57;11.93;;;10.33;;
22929;SDS011;11630;42.660;23.292;2023-06-05T01:35:47;11.07;;;9.93;;
22929;SDS011;11630;42.660;23.292;2023-06-05T01:38:18;10.83;;;9.73;;
22929;SDS011;11630;42.660;23.292;2023-06-05T01:40:50;21.60;;;11.57;;
22929;SDS011;11630;42.660;23.292;2023-06-05T01:43:22;13.30;;;9.57;;
22929;SDS011;11630;42.660;23.292;2023-06-05T01:45:54;10.07;;;9.03;;
22929;SDS011;11630;42.660;23.292;2023-06-05T01:48:25;16.63;;;13.43;;
22929;SDS011;11630;42.660;23.292;2023-06-05T01:50:57;15.70;;;10.13;;
22929;SDS011;11630;42.660;23.292;2023-06-05T01:53:29;11.63;;;9.80;;
22929;SDS011;11630;42.660;23.292;2023-06-05T01:55:59;13.33;;;10.23;;
22929;SDS011;11630;42.660;23.292;2023-06-05T01:58:30;20.00;;;10.90;;
22929;SDS011;11630;42.660;23.292;2023-06-05T02:01:01;17.57;;;10.20;;
22929;SDS011;11630;42.660;23.292;2023-06-05T02:03:32;12.07;;;10.77;;
22929;SDS011;11630;42.660;23.292;2023-06-05T02:06:03;13.77;;;10.23;;
22929;SDS011;11630;42.660;23.292;2023-06-05T02:08:34;14.83;;;12.80;;
22929;SDS011;11630;42.660;23.292;2023-06-05T02:11:05;17.70;;;12.00;;
22929;SDS011;11630;42.660;23.292;2023-06-05T02:13:39;17.20;;;12.73;;
22929;SDS011;11630;42.660;23.292;2023-06-05T02:16:10;12.83;;;11.37;;
22929;SDS011;11630;42.660;23.292;2023-06-05T02:18:40;10.97;;;9.60;;
22929;SDS011;11630;42.660;23.292;2023-06-05T02:21:11;14.80;;;10.67;;
22929;SDS011;11630;42.660;23.292;2023-06-05T02:23:42;10.90;;;9.43;;
22929;SDS011;11630;42.660;23.292;2023-06-05T02:26:13;26.37;;;11.77;;
22929;SDS011;11630;42.660;23.292;2023-06-05T02:28:45;17.23;;;11.40;;
22929;SDS011;11630;42.660;23.292;2023-06-05T02:31:17;24.20;;;11.37;;
22929;SDS011;11630;42.660;23.292;2023-06-05T02:33:48;15.90;;;11.00;;
22929;SDS011;11630;42.660;23.292;2023-06-05T02:36:23;16.07;;;10.87;;
22929;SDS011;11630;42.660;23.292;2023-06-05T02:38:53;13.97;;;10.90;;
22929;SDS011;11630;42.660;23.292;2023-06-05T02:41:25;13.00;;;10.77;;
22929;SDS011;11630;42.660;23.292;2023-06-05T02:43:57;11.13;;;9.97;;
22929;SDS011;11630;42.660;23.292;2023-06-05T02:46:28;14.77;;;10.53;;
22929;SDS011;11630;42.660;23.292;2023-06-05T02:48:59;15.30;;;10.37;;
22929;SDS011;11630;42.660;23.292;2023-06-05T02:51:30;16.77;;;10.63;;
22929;SDS011;11630;42.660;23.292;2023-06-05T02:54:00;14.63;;;11.07;;
22929;SDS011;11630;42.660;23.292;2023-06-05T02:56:31;17.43;;;10.90;;
22929;SDS011;11630;42.660;23.292;2023-06-05T02:59:02;12.17;;;10.87;;
22929;SDS011;11630;42.660;23.292;2023-06-05T03:01:33;12.20;;;9.97;;
22929;SDS011;11630;42.660;23.292;2023-06-05T03:04:04;11.03;;;9.73;;
22929;SDS011;11630;42.660;23.292;2023-06-05T03:06:35;14.67;;;10.57;;
22929;SDS011;11630;42.660;23.292;2023-06-05T03:09:06;14.90;;;11.30;;
22929;SDS011;11630;42.660;23.292;2023-06-05T03:11:37;15.97;;;10.70;;
22929;SDS011;11630;42.660;23.292;2023-06-05T03:14:08;17.20;;;11.87;;
22929;SDS011;11630;42.660;23.292;2023-06-05T03:16:38;17.03;;;10.83;;
22929;SDS011;11630;42.660;23.292;2023-06-05T03:19:09;15.83;;;10.67;;
22929;SDS011;11630;42.660;23.292;2023-06-05T03:21:38;14.47;;;11.93;;
22929;SDS011;11630;42.660;23.292;2023-06-05T03:24:10;18.53;;;10.87;;
22929;SDS011;11630;42.660;23.292;2023-06-05T03:26:40;17.40;;;11.50;;
22929;SDS011;11630;42.660;23.292;2023-06-05T03:29:12;17.33;;;11.77;;
22929;SDS011;11630;42.660;23.292;2023-06-05T03:31:43;17.50;;;11.10;;
22929;SDS011;11630;42.660;23.292;2023-06-05T03:34:14;11.97;;;10.70;;
22929;SDS011;11630;42.660;23.292;2023-06-05T03:36:44;12.63;;;10.83;;
22929;SDS011;11630;42.660;23.292;2023-06-05T03:39:16;11.57;;;9.97;;
22929;SDS011;11630;42.660;23.292;2023-06-05T03:41:46;13.03;;;9.77;;
22929;SDS011;11630;42.660;23.292;2023-06-05T03:44:17;14.17;;;10.30;;
22929;SDS011;11630;42.660;23.292;2023-06-05T03:46:47;17.90;;;10.77;;
22929;SDS011;11630;42.660;23.292;2023-06-05T03:49:18;18.23;;;11.80;;
22929;SDS011;11630;42.660;23.292;2023-06-05T03:51:49;18.47;;;12.10;;
22929;SDS011;11630;42.660;23.292;2023-06-05T03:54:19;18.20;;;12.70;;
22929;SDS011;11630;42.660;23.292;2023-06-05T03:56:51;20.07;;;13.87;;
22929;SDS011;11630;42.660;23.292;2023-06-05T03:59:22;21.93;;;15.33;;
22929;SDS011;11630;42.660;23.292;2023-06-05T04:01:53;22.93;;;13.80;;
22929;SDS011;11630;42.660;23.292;2023-06-05T04:04:25;20.33;;;14.60;;
22929;SDS011;11630;42.660;23.292;2023-06-05T04:06:56;17.03;;;14.73;;
22929;SDS011;11630;42.660;23.292;2023-06-05T04:09:27;17.27;;;13.70;;
22929;SDS011;11630;42.660;23.292;2023-06-05T04:11:57;18.10;;;14.20;;
22929;SDS011;11630;42.660;23.292;2023-06-05T04:14:27;21.00;;;14.97;;
22929;SDS011;11630;42.660;23.292;2023-06-05T04:16:59;20.57;;;14.53;;
22929;SDS011;11630;42.660;23.292;2023-06-05T04:19:29;19.40;;;16.80;;
22929;SDS011;11630;42.660;23.292;2023-06-05T04:22:02;21.30;;;17.50;;
22929;SDS011;11630;42.660;23.292;2023-06-05T04:24:33;21.07;;;18.03;;
22929;SDS011;11630;42.660;23.292;2023-06-05T04:27:04;20.23;;;17.67;;
22929;SDS011;11630;42.660;23.292;2023-06-05T04:29:34;27.00;;;18.23;;
22929;SDS011;11630;42.660;23.292;2023-06-05T04:32:05;21.77;;;19.20;;
22929;SDS011;11630;42.660;23.292;2023-06-05T04:34:36;26.30;;;19.27;;
22929;SDS011;11630;42.660;23.292;2023-06-05T04:37:07;29.40;;;20.43;;
22929;SDS011;11630;42.660;23.292;2023-06-05T04:39:38;25.63;;;21.67;;
22929;SDS011;11630;42.660;23.292;2023-06-05T04:42:09;33.93;;;21.70;;
22929;SDS011;11630;42.660;23.292;2023-06-05T04:44:40;25.23;;;20.13;;
22929;SDS011;11630;42.660;23.292;2023-06-05T04:47:11;28.53;;;20.83;;
22929;SDS011;11630;42.660;23.292;2023-06-05T04:49:42;26.27;;;20.53;;
22929;SDS011;11630;42.660;23.292;2023-06-05T04:52:13;25.13;;;20.30;;
22929;SDS011;11630;42.660;23.292;2023-06-05T04:54:43;24.43;;;20.63;;
22929;SDS011;11630;42.660;23.292;2023-06-05T04:57:16;25.53;;;20.90;;
22929;SDS011;11630;42.660;23.292;2023-06-05T04:59:46;24.63;;;20.70;;
22929;SDS011;11630;42.660;23.292;2023-06-05T05:02:17;27.07;;;20.73;;
22929;SDS011;11630;42.660;23.292;2023-06-05T05:04:48;36.50;;;22.43;;
22929;SDS011;11630;42.660;23.292;2023-06-05T05:07:18;25.77;;;20.33;;
22929;SDS011;11630;42.660;23.292;2023-06-05T05:09:49;28.30;;;21.03;;
22929;SDS011;11630;42.660;23.292;2023-06-05T05:12:19;25.93;;;20.87;;
22929;SDS011;11630;42.660;23.292;2023-06-05T05:14:51;18.93;;;16.93;;
22929;SDS011;11630;42.660;23.292;2023-06-05T05:17:21;26.10;;;17.53;;
22929;SDS011;11630;42.660;23.292;2023-06-05T05:19:55;25.10;;;17.87;;
22929;SDS011;11630;42.660;23.292;2023-06-05T05:22:26;21.80;;;16.90;;
22929;SDS011;11630;42.660;23.292;2023-06-05T05:24:56;22.73;;;18.37;;
22929;SDS011;11630;42.660;23.292;2023-06-05T05:27:27;24.73;;;18.40;;
22929;SDS011;11630;42.660;23.292;2023-06-05T05:29:59;21.37;;;18.33;;
22929;SDS011;11630;42.660;23.292;2023-06-05T05:32:30;25.33;;;18.83;;
22929;SDS011;11630;42.660;23.292;2023-06-05T05:35:00;21.77;;;19.47;;
22929;SDS011;11630;42.660;23.292;2023-06-05T05:37:31;25.57;;;18.37;;
22929;SDS011;11630;42.660;23.292;2023-06-05T05:40:02;26.00;;;17.63;;
22929;SDS011;11630;42.660;23.292;2023-06-05T05:42:32;24.17;;;17.73;;
22929;SDS011;11630;42.660;23.292;2023-06-05T05:45:03;21.17;;;18.67;;
22929;SDS011;11630;42.660;23.292;2023-06-05T05:47:35;24.53;;;17.47;;
22929;SDS011;11630;42.660;23.292;2023-06-05T05:50:06;22.07;;;17.83;;
22929;SDS011;11630;42.660;23.292;2023-06-05T05:52:37;24.80;;;17.67;;
22929;SDS011;11630;42.660;23.292;2023-06-05T05:55:09;19.73;;;17.63;;
22929;SDS011;11630;42.660;23.292;2023-06-05T05:57:39;32.60;;;18.67;;
22929;SDS011;11630;42.660;23.292;2023-06-05T06:00:11;21.00;;;15.00;;
22929;SDS011;11630;42.660;23.292;2023-06-05T06:02:42;34.63;;;17.40;;
22929;SDS011;11630;42.660;23.292;2023-06-05T06:05:12;26.13;;;17.70;;
22929;SDS011;11630;42.660;23.292;2023-06-05T06:07:44;15.47;;;11.00;;
22929;SDS011;11630;42.660;23.292;2023-06-05T06:10:13;20.30;;;13.07;;
22929;SDS011;11630;42.660;23.292;2023-06-05T06:12:44;22.83;;;13.10;;
22929;SDS011;11630;42.660;23.292;2023-06-05T06:15:14;15.13;;;13.53;;
22929;SDS011;11630;42.660;23.292;2023-06-05T06:17:45;15.67;;;13.90;;
22929;SDS011;11630;42.660;23.292;2023-06-05T06:20:16;19.27;;;14.13;;
22929;SDS011;11630;42.660;23.292;2023-06-05T06:22:45;26.57;;;14.53;;
22929;SDS011;11630;42.660;23.292;2023-06-05T06:25:17;21.77;;;12.67;;
22929;SDS011;11630;42.660;23.292;2023-06-05T06:27:50;18.27;;;12.50;;
22929;SDS011;11630;42.660;23.292;2023-06-05T06:30:21;19.57;;;13.67;;
22929;SDS011;11630;42.660;23.292;2023-06-05T06:32:52;20.37;;;14.33;;
22929;SDS011;11630;42.660;23.292;2023-06-05T06:35:26;22.00;;;14.83;;
22929;SDS011;11630;42.660;23.292;2023-06-05T06:37:55;20.33;;;13.53;;
22929;SDS011;11630;42.660;23.292;2023-06-05T06:40:26;17.63;;;13.17;;
22929;SDS011;11630;42.660;23.292;2023-06-05T06:42:57;17.33;;;14.30;;
22929;SDS011;11630;42.660;23.292;2023-06-05T06:45:27;16.07;;;14.23;;
22929;SDS011;11630;42.660;23.292;2023-06-05T06:47:58;23.47;;;13.10;;
22929;SDS011;11630;42.660;23.292;2023-06-05T06:50:29;17.37;;;13.87;;
22929;SDS011;11630;42.660;23.292;2023-06-05T06:53:00;15.10;;;12.30;;
22929;SDS011;11630;42.660;23.292;2023-06-05T06:55:31;22.00;;;15.27;;
22929;SDS011;11630;42.660;23.292;2023-06-05T06:58:03;25.67;;;14.90;;
22929;SDS011;11630;42.660;23.292;2023-06-05T07:00:34;22.70;;;14.83;;
22929;SDS011;11630;42.660;23.292;2023-06-05T07:03:05;26.67;;;15.50;;
22929;SDS011;11630;42.660;23.292;2023-06-05T07:05:36;17.43;;;14.07;;
22929;SDS011;11630;42.660;23.292;2023-06-05T07:08:07;17.57;;;14.67;;
22929;SDS011;11630;42.660;23.292;2023-06-05T07:10:39;20.03;;;14.57;;
22929;SDS011;11630;42.660;23.292;2023-06-05T07:13:09;18.77;;;14.67;;
22929;SDS011;11630;42.660;23.292;2023-06-05T07:15:40;21.27;;;13.87;;
22929;SDS011;11630;42.660;23.292;2023-06-05T07:18:11;18.20;;;15.20;;
22929;SDS011;11630;42.660;23.292;2023-06-05T07:20:42;18.73;;;14.83;;
22929;SDS011;11630;42.660;23.292;2023-06-05T07:23:13;25.70;;;16.03;;
22929;SDS011;11630;42.660;23.292;2023-06-05T07:25:43;21.17;;;16.77;;
22929;SDS011;11630;42.660;23.292;2023-06-05T07:28:16;20.27;;;14.80;;
22929;SDS011;11630;42.660;23.292;2023-06-05T07:30:47;20.20;;;16.67;;
22929;SDS011;11630;42.660;23.292;2023-06-05T07:33:18;25.67;;;16.33;;
22929;SDS011;11630;42.660;23.292;2023-06-05T07:35:49;23.93;;;15.83;;
22929;SDS011;11630;42.660;23.292;2023-06-05T07:38:20;23.67;;;16.23;;
22929;SDS011;11630;42.660;23.292;2023-06-05T07:40:51;22.13;;;15.97;;
22929;SDS011;11630;42.660;23.292;2023-06-05T07:43:21;20.80;;;16.63;;
22929;SDS011;11630;42.660;23.292;2023-06-05T07:45:53;21.00;;;15.80;;
22929;SDS011;11630;42.660;23.292;2023-06-05T07:48:24;23.03;;;15.47;;
22929;SDS011;11630;42.660;23.292;2023-06-05T07:50:54;19.10;;;14.57;;
22929;SDS011;11630;42.660;23.292;2023-06-05T07:53:25;21.43;;;16.60;;
22929;SDS011;11630;42.660;23.292;2023-06-05T07:55:55;21.73;;;15.57;;
22929;SDS011;11630;42.660;23.292;2023-06-05T07:58:26;20.93;;;14.67;;
22929;SDS011;11630;42.660;23.292;2023-06-05T08:00:55;23.27;;;16.87;;
22929;SDS011;11630;42.660;23.292;2023-06-05T08:03:26;27.07;;;16.43;;
22929;SDS011;11630;42.660;23.292;2023-06-05T08:05:57;20.03;;;16.57;;
22929;SDS011;11630;42.660;23.292;2023-06-05T08:08:26;18.17;;;15.10;;
22929;SDS011;11630;42.660;23.292;2023-06-05T08:10:56;35.87;;;15.30;;
22929;SDS011;11630;42.660;23.292;2023-06-05T08:13:28;20.67;;;16.37;;
22929;SDS011;11630;42.660;23.292;2023-06-05T08:15:58;25.60;;;15.20;;
22929;SDS011;11630;42.660;23.292;2023-06-05T08:18:29;19.37;;;14.47;;
22929;SDS011;11630;42.660;23.292;2023-06-05T08:21:00;21.93;;;15.33;;
22929;SDS011;11630;42.660;23.292;2023-06-05T08:23:31;27.57;;;16.03;;
22929;SDS011;11630;42.660;23.292;2023-06-05T08:26:02;23.63;;;15.60;;
22929;SDS011;11630;42.660;23.292;2023-06-05T08:28:33;25.77;;;16.73;;
22929;SDS011;11630;42.660;23.292;2023-06-05T08:31:03;20.17;;;15.53;;
22929;SDS011;11630;42.660;23.292;2023-06-05T08:33:35;23.63;;;15.43;;
22929;SDS011;11630;42.660;23.292;2023-06-05T08:36:07;20.80;;;16.07;;
22929;SDS011;11630;42.660;23.292;2023-06-05T08:38:37;25.60;;;16.20;;
22929;SDS011;11630;42.660;23.292;2023-06-05T08:41:07;20.57;;;15.80;;
22929;SDS011;11630;42.660;23.292;2023-06-05T08:43:37;24.67;;;15.70;;
22929;SDS011;11630;42.660;23.292;2023-06-05T08:46:09;19.07;;;14.97;;
22929;SDS011;11630;42.660;23.292;2023-06-05T08:48:44;20.43;;;14.63;;
22929;SDS011;11630;42.660;23.292;2023-06-05T08:51:16;22.30;;;15.47;;
22929;SDS011;11630;42.660;23.292;2023-06-05T08:53:54;25.17;;;15.80;;
22929;SDS011;11630;42.660;23.292;2023-06-05T08:56:25;26.13;;;16.53;;
22929;SDS011;11630;42.660;23.292;2023-06-05T08:58:56;23.20;;;16.70;;
22929;SDS011;11630;42.660;23.292;2023-06-05T09:01:26;23.00;;;15.00;;
22929;SDS011;11630;42.660;23.292;2023-06-05T09:03:58;21.63;;;15.33;;
22929;SDS011;11630;42.660;23.292;2023-06-05T09:06:32;19.20;;;15.00;;
22929;SDS011;11630;42.660;23.292;2023-06-05T09:09:04;19.87;;;14.67;;
22929;SDS011;11630;42.660;23.292;2023-06-05T09:11:35;21.17;;;15.17;;
22929;SDS011;11630;42.660;23.292;2023-06-05T09:14:06;19.90;;;15.40;;
22929;SDS011;11630;42.660;23.292;2023-06-05T09:16:38;24.03;;;16.93;;
22929;SDS011;11630;42.660;23.292;2023-06-05T09:19:12;18.63;;;14.77;;
22929;SDS011;11630;42.660;23.292;2023-06-05T09:21:51;17.87;;;14.20;;
22929;SDS011;11630;42.660;23.292;2023-06-05T09:24:19;29.67;;;17.17;;
22929;SDS011;11630;42.660;23.292;2023-06-05T09:26:57;21.20;;;15.23;;
22929;SDS011;11630;42.660;23.292;2023-06-05T09:29:33;20.17;;;14.63;;
22929;SDS011;11630;42.660;23.292;2023-06-05T09:32:15;20.90;;;15.13;;
22929;SDS011;11630;42.660;23.292;2023-06-05T09:34:41;18.27;;;14.20;;
22929;SDS011;11630;42.660;23.292;2023-06-05T09:37:12;17.90;;;14.17;;
22929;SDS011;11630;42.660;23.292;2023-06-05T09:39:44;19.77;;;13.73;;
22929;SDS011;11630;42.660;23.292;2023-06-05T09:42:14;20.77;;;14.50;;
22929;SDS011;11630;42.660;23.292;2023-06-05T09:44:57;23.43;;;15.43;;
22929;SDS011;11630;42.660;23.292;2023-06-05T09:47:18;20.13;;;14.13;;
22929;SDS011;11630;42.660;23.292;2023-06-05T09:49:50;19.13;;;14.40;;
22929;SDS011;11630;42.660;23.292;2023-06-05T09:52:24;19.20;;;14.57;;
22929;SDS011;11630;42.660;23.292;2023-06-05T09:54:55;19.90;;;15.50;;
22929;SDS011;11630;42.660;23.292;2023-06-05T09:57:35;19.70;;;14.83;;
22929;SDS011;11630;42.660;23.292;2023-06-05T10:00:08;19.03;;;15.03;;
22929;SDS011;11630;42.660;23.292;2023-06-05T10:02:39;20.47;;;14.03;;
22929;SDS011;11630;42.660;23.292;2023-06-05T10:05:11;19.20;;;14.17;;
22929;SDS011;11630;42.660;23.292;2023-06-05T10:07:42;18.90;;;13.93;;
22929;SDS011;11630;42.660;23.292;2023-06-05T10:10:13;24.03;;;16.13;;
22929;SDS011;11630;42.660;23.292;2023-06-05T10:12:44;21.17;;;15.40;;
22929;SDS011;11630;42.660;23.292;2023-06-05T10:15:15;22.00;;;15.97;;
22929;SDS011;11630;42.660;23.292;2023-06-05T10:17:48;27.17;;;16.83;;
22929;SDS011;11630;42.660;23.292;2023-06-05T10:20:19;24.90;;;15.53;;
22929;SDS011;11630;42.660;23.292;2023-06-05T10:22:51;20.33;;;15.83;;
22929;SDS011;11630;42.660;23.292;2023-06-05T10:25:23;20.00;;;15.83;;
22929;SDS011;11630;42.660;23.292;2023-06-05T10:30:54;17.50;;;14.10;;
22929;SDS011;11630;42.660;23.292;2023-06-05T10:33:48;22.73;;;13.50;;
22929;SDS011;11630;42.660;23.292;2023-06-05T10:39:11;18.20;;;13.10;;
22929;SDS011;11630;42.660;23.292;2023-06-05T10:41:43;13.90;;;11.63;;
22929;SDS011;11630;42.660;23.292;2023-06-05T10:44:14;15.13;;;12.60;;
22929;SDS011;11630;42.660;23.292;2023-06-05T10:46:45;16.07;;;12.37;;
22929;SDS011;11630;42.660;23.292;2023-06-05T10:49:16;18.87;;;12.67;;
22929;SDS011;11630;42.660;23.292;2023-06-05T10:51:48;14.57;;;10.83;;
22929;SDS011;11630;42.660;23.292;2023-06-05T10:57:01;15.33;;;11.50;;
22929;SDS011;11630;42.660;23.292;2023-06-05T10:59:36;12.70;;;10.43;;
22929;SDS011;11630;42.660;23.292;2023-06-05T11:02:21;16.63;;;10.47;;
22929;SDS011;11630;42.660;23.292;2023-06-05T11:15:16;9.00;;;7.57;;
22929;SDS011;11630;42.660;23.292;2023-06-05T11:21:00;12.17;;;8.27;;
22929;SDS011;11630;42.660;23.292;2023-06-05T11:23:31;17.97;;;8.67;;
22929;SDS011;11630;42.660;23.292;2023-06-05T11:26:38;12.90;;;7.57;;
22929;SDS011;11630;42.660;23.292;2023-06-05T11:28:49;10.13;;;8.07;;
22929;SDS011;11630;42.660;23.292;2023-06-05T11:31:27;10.90;;;8.63;;
22929;SDS011;11630;42.660;23.292;2023-06-05T11:33:55;14.03;;;7.90;;
22929;SDS011;11630;42.660;23.292;2023-06-05T11:36:26;8.00;;;7.20;;
22929;SDS011;11630;42.660;23.292;2023-06-05T11:38:56;8.70;;;7.40;;
22929;SDS011;11630;42.660;23.292;2023-06-05T11:41:27;11.33;;;8.07;;
22929;SDS011;11630;42.660;23.292;2023-06-05T11:43:58;10.83;;;7.97;;
22929;SDS011;11630;42.660;23.292;2023-06-05T11:46:38;12.53;;;7.50;;
22929;SDS011;11630;42.660;23.292;2023-06-05T11:49:22;8.87;;;6.60;;
22929;SDS011;11630;42.660;23.292;2023-06-05T11:51:48;8.13;;;6.83;;
22929;SDS011;11630;42.660;23.292;2023-06-05T11:54:29;10.67;;;7.30;;
22929;SDS011;11630;42.660;23.292;2023-06-05T11:57:02;14.43;;;7.37;;
22929;SDS011;11630;42.660;23.292;2023-06-05T11:59:33;9.90;;;7.30;;
22929;SDS011;11630;42.660;23.292;2023-06-05T12:02:04;8.77;;;6.40;;
22929;SDS011;11630;42.660;23.292;2023-06-05T12:04:36;7.80;;;6.73;;
22929;SDS011;11630;42.660;23.292;2023-06-05T12:07:08;8.60;;;6.67;;
22929;SDS011;11630;42.660;23.292;2023-06-05T12:09:39;11.77;;;7.50;;
22929;SDS011;11630;42.660;23.292;2023-06-05T12:12:10;16.47;;;7.00;;
22929;SDS011;11630;42.660;23.292;2023-06-05T12:14:41;7.57;;;6.40;;
22929;SDS011;11630;42.660;23.292;2023-06-05T12:17:11;12.03;;;6.80;;
22929;SDS011;11630;42.660;23.292;2023-06-05T12:19:42;14.53;;;6.90;;
22929;SDS011;11630;42.660;23.292;2023-06-05T12:22:14;9.30;;;7.33;;
22929;SDS011;11630;42.660;23.292;2023-06-05T12:24:45;11.77;;;6.67;;
22929;SDS011;11630;42.660;23.292;2023-06-05T12:27:16;9.13;;;6.10;;
22929;SDS011;11630;42.660;23.292;2023-06-05T12:29:56;8.97;;;6.17;;
22929;SDS011;11630;42.660;23.292;2023-06-05T12:32:27;6.97;;;6.08;;
22929;SDS011;11630;42.660;23.292;2023-06-05T12:34:58;13.50;;;6.80;;
22929;SDS011;11630;42.660;23.292;2023-06-05T12:37:30;10.93;;;6.83;;
22929;SDS011;11630;42.660;23.292;2023-06-05T12:40:01;18.10;;;7.20;;
22929;SDS011;11630;42.660;23.292;2023-06-05T12:42:35;10.50;;;6.00;;
22929;SDS011;11630;42.660;23.292;2023-06-05T12:45:05;14.00;;;6.73;;
22929;SDS011;11630;42.660;23.292;2023-06-05T12:47:37;13.37;;;8.17;;
22929;SDS011;11630;42.660;23.292;2023-06-05T12:50:08;8.37;;;6.13;;
22929;SDS011;11630;42.660;23.292;2023-06-05T12:52:39;9.17;;;6.63;;
22929;SDS011;11630;42.660;23.292;2023-06-05T12:55:11;6.47;;;5.83;;
22929;SDS011;11630;42.660;23.292;2023-06-05T12:57:41;7.77;;;5.30;;
22929;SDS011;11630;42.660;23.292;2023-06-05T13:00:13;24.03;;;8.53;;
22929;SDS011;11630;42.660;23.292;2023-06-05T13:02:45;9.03;;;5.47;;
22929;SDS011;11630;42.660;23.292;2023-06-05T13:05:17;10.93;;;5.62;;
22929;SDS011;11630;42.660;23.292;2023-06-05T13:07:48;7.43;;;5.93;;
22929;SDS011;11630;42.660;23.292;2023-06-05T13:10:19;9.77;;;5.73;;
22929;SDS011;11630;42.660;23.292;2023-06-05T13:12:49;9.73;;;6.23;;
22929;SDS011;11630;42.660;23.292;2023-06-05T13:15:20;8.10;;;6.07;;
22929;SDS011;11630;42.660;23.292;2023-06-05T13:17:50;7.20;;;6.10;;
22929;SDS011;11630;42.660;23.292;2023-06-05T13:20:21;7.70;;;5.83;;
22929;SDS011;11630;42.660;23.292;2023-06-05T13:22:52;8.00;;;7.00;;
22929;SDS011;11630;42.660;23.292;2023-06-05T13:25:23;6.80;;;6.10;;
22929;SDS011;11630;42.660;23.292;2023-06-05T13:27:53;9.37;;;6.27;;
22929;SDS011;11630;42.660;23.292;2023-06-05T13:30:24;7.53;;;5.37;;
22929;SDS011;11630;42.660;23.292;2023-06-05T13:32:56;12.07;;;6.80;;
22929;SDS011;11630;42.660;23.292;2023-06-05T13:35:26;7.23;;;5.93;;
22929;SDS011;11630;42.660;23.292;2023-06-05T13:37:56;6.30;;;5.70;;
22929;SDS011;11630;42.660;23.292;2023-06-05T13:40:27;10.00;;;5.90;;
22929;SDS011;11630;42.660;23.292;2023-06-05T13:42:58;10.50;;;5.73;;
22929;SDS011;11630;42.660;23.292;2023-06-05T13:45:28;9.53;;;5.83;;
22929;SDS011;11630;42.660;23.292;2023-06-05T13:48:00;7.13;;;5.60;;
22929;SDS011;11630;42.660;23.292;2023-06-05T13:50:31;6.80;;;5.80;;
22929;SDS011;11630;42.660;23.292;2023-06-05T13:53:02;7.67;;;5.40;;
22929;SDS011;11630;42.660;23.292;2023-06-05T13:55:33;9.37;;;5.57;;
22929;SDS011;11630;42.660;23.292;2023-06-05T13:58:05;8.17;;;5.73;;
22929;SDS011;11630;42.660;23.292;2023-06-05T14:00:36;13.03;;;6.10;;
22929;SDS011;11630;42.660;23.292;2023-06-05T14:03:07;6.73;;;5.93;;
22929;SDS011;11630;42.660;23.292;2023-06-05T14:05:37;6.00;;;5.40;;
22929;SDS011;11630;42.660;23.292;2023-06-05T14:08:08;6.77;;;5.53;;
22929;SDS011;11630;42.660;23.292;2023-06-05T14:10:39;8.07;;;5.90;;
22929;SDS011;11630;42.660;23.292;2023-06-05T14:13:13;9.03;;;5.63;;
22929;SDS011;11630;42.660;23.292;2023-06-05T14:15:43;10.30;;;6.33;;
22929;SDS011;11630;42.660;23.292;2023-06-05T14:18:13;8.23;;;5.83;;
22929;SDS011;11630;42.660;23.292;2023-06-05T14:20:45;7.53;;;5.60;;
22929;SDS011;11630;42.660;23.292;2023-06-05T14:23:16;20.33;;;7.93;;
22929;SDS011;11630;42.660;23.292;2023-06-05T14:25:47;17.93;;;6.60;;
22929;SDS011;11630;42.660;23.292;2023-06-05T14:28:21;8.93;;;5.47;;
22929;SDS011;11630;42.660;23.292;2023-06-05T14:30:57;5.93;;;5.43;;
22929;SDS011;11630;42.660;23.292;2023-06-05T14:33:27;9.30;;;6.07;;
22929;SDS011;11630;42.660;23.292;2023-06-05T14:35:58;7.33;;;6.63;;
22929;SDS011;11630;42.660;23.292;2023-06-05T14:38:29;7.30;;;5.93;;
22929;SDS011;11630;42.660;23.292;2023-06-05T14:41:04;9.70;;;5.77;;
22929;SDS011;11630;42.660;23.292;2023-06-05T14:43:35;11.60;;;6.53;;
22929;SDS011;11630;42.660;23.292;2023-06-05T14:46:05;10.90;;;5.87;;
22929;SDS011;11630;42.660;23.292;2023-06-05T14:48:36;7.67;;;5.77;;
22929;SDS011;11630;42.660;23.292;2023-06-05T14:51:07;6.60;;;6.00;;
22929;SDS011;11630;42.660;23.292;2023-06-05T14:53:38;10.50;;;6.47;;
22929;SDS011;11630;42.660;23.292;2023-06-05T14:56:09;12.67;;;6.73;;
22929;SDS011;11630;42.660;23.292;2023-06-05T14:58:39;14.40;;;6.37;;
22929;SDS011;11630;42.660;23.292;2023-06-05T15:01:10;18.30;;;7.73;;
22929;SDS011;11630;42.660;23.292;2023-06-05T15:03:41;9.70;;;6.90;;